Time;durP1;ratioP1;P1;durP2;ratioP2;P2;SDS_P1;SDS_P2;PMS_P1;PMS_P2;Temp;Humidity;BMP_temperature;BMP_pressure;BME280_temperature;BME280_humidity;BME280_pressure;Samples;Min_cycle;Max_cycle;Signal;HPM_P1;HPM_P2
2023/09/20 00:00:32;;;;;;;;;0.00;0.00;;;;;24.22;100.00;100596.25;2114203;27;46627;-61
2023/09/20 00:01:32;;;;;;;;;0.00;0.00;;;;;24.22;100.00;100599.81;2114612;27;46655;-60
2023/09/20 00:02:33;;;;;;;;;1.00;1.00;;;;;24.22;100.00;100599.81;2114332;27;46234;-60
2023/09/20 00:03:34;;;;;;;;;0.00;0.00;;;;;24.22;100.00;100593.53;2095833;28;46978;-60
2023/09/20 00:04:35;;;;;;;;;0.00;0.00;;;;;24.23;100.00;100584.41;2095383;28;46551;-60
2023/09/20 00:05:39;;;;;;;;;0.00;0.00;;;;;24.22;100.00;100599.81;2113968;27;46480;-61
2023/09/20 00:06:39;;;;;;;;;0.00;0.00;;;;;24.21;100.00;100594.53;2114260;27;46618;-60
2023/09/20 00:07:39;;;;;;;;;1.00;1.00;;;;;24.19;100.00;100589.22;2113622;27;46689;-60
2023/09/20 00:08:40;;;;;;;;;0.00;0.00;;;;;24.17;100.00;100587.63;2112888;27;46360;-60
2023/09/20 00:09:40;;;;;;;;;0.00;0.00;;;;;24.16;100.00;100588.63;2115012;27;46337;-59
2023/09/20 00:10:41;;;;;;;;;0.00;0.00;;;;;24.16;100.00;100597.63;2113254;27;46867;-62
2023/09/20 00:11:44;;;;;;;;;0.00;0.00;;;;;24.15;100.00;100598.59;2114330;27;46275;-62
2023/09/20 00:12:44;;;;;;;;;0.00;0.00;;;;;24.15;100.00;100598.59;2113893;27;46822;-61
2023/09/20 00:13:45;;;;;;;;;0.00;0.00;;;;;24.14;100.00;100579.72;2114389;27;45899;-61
2023/09/20 00:14:46;;;;;;;;;1.00;0.25;;;;;24.13;100.00;100583.41;2114257;27;46296;-61
2023/09/20 00:15:46;;;;;;;;;0.00;0.00;;;;;24.12;100.00;100593.41;2113983;27;46581;-61
2023/09/20 00:16:46;;;;;;;;;0.00;0.00;;;;;24.11;100.00;100593.53;2113527;27;46377;-61
2023/09/20 00:17:48;;;;;;;;;0.00;0.00;;;;;24.10;100.00;100587.25;2113511;27;46193;-61
2023/09/20 00:18:49;;;;;;;;;0.00;0.00;;;;;24.09;100.00;100593.66;2112449;27;46560;-61
2023/09/20 00:19:49;;;;;;;;;0.00;0.00;;;;;24.08;100.00;100578.38;2114185;27;46799;-60
2023/09/20 00:20:49;;;;;;;;;0.00;0.00;;;;;24.06;100.00;100586.63;2113936;27;46266;-61
2023/09/20 00:21:50;;;;;;;;;0.00;0.00;;;;;24.05;100.00;100590.34;2114259;27;46791;-60
2023/09/20 00:22:50;;;;;;;;;0.33;0.33;;;;;24.06;100.00;100592.06;2114100;27;46514;-60
2023/09/20 00:23:51;;;;;;;;;0.00;0.00;;;;;24.05;100.00;100584.91;2113750;27;46215;-62
2023/09/20 00:24:51;;;;;;;;;0.00;0.00;;;;;24.07;100.00;100587.50;2114130;27;46191;-59
2023/09/20 00:25:52;;;;;;;;;0.67;0.67;;;;;24.08;100.00;100584.66;2114218;27;46234;-59
2023/09/20 00:26:52;;;;;;;;;1.00;0.00;;;;;24.10;100.00;100589.97;2114333;27;45371;-60
2023/09/20 00:27:52;;;;;;;;;1.00;1.00;;;;;24.11;100.00;100590.81;2105114;28;46872;-61
2023/09/20 00:28:53;;;;;;;;;0.00;0.00;;;;;24.12;100.00;100589.84;2096413;28;46447;-60
2023/09/20 00:29:56;;;;;;;;;0.00;0.00;;;;;24.11;100.00;100580.84;2108479;27;46256;-61
2023/09/20 00:30:57;;;;;;;;;0.25;0.25;;;;;24.10;100.00;100573.69;2114216;27;46409;-60
2023/09/20 00:31:57;;;;;;;;;0.00;0.00;;;;;24.08;100.00;100573.81;2114311;27;46592;-60
2023/09/20 00:33:01;;;;;;;;;0.33;0.33;;;;;24.09;100.00;100569.25;2113506;27;46498;-61
2023/09/20 00:34:03;;;;;;;;;0.00;0.00;;;;;24.10;100.00;100567.41;2113119;27;47056;-61
2023/09/20 00:35:03;;;;;;;;;0.00;0.00;;;;;24.10;100.00;100572.81;2114140;27;46354;-61
2023/09/20 00:36:04;;;;;;;;;0.00;0.00;;;;;24.10;100.00;100568.28;2113844;27;46661;-61
2023/09/20 00:37:04;;;;;;;;;0.00;0.00;;;;;24.09;100.00;100563.84;2114211;27;46311;-61
2023/09/20 00:38:05;;;;;;;;;2.00;0.00;;;;;24.08;100.00;100567.53;2114009;27;46349;-61
2023/09/20 00:39:05;;;;;;;;;0.33;0.00;;;;;24.10;100.00;100570.13;2113681;27;46850;-61
2023/09/20 00:40:15;;;;;;;;;0.00;0.00;;;;;24.10;100.00;100562.84;2114081;27;46719;-61
2023/09/20 00:41:15;;;;;;;;;0.00;0.00;;;;;24.10;100.00;100557.44;2113576;27;46585;-61
2023/09/20 00:42:16;;;;;;;;;0.00;0.00;;;;;24.13;100.00;100562.59;2114367;27;46392;-61
2023/09/20 00:43:23;;;;;;;;;0.00;0.00;;;;;24.14;100.00;100561.63;2113837;27;46257;-61
2023/09/20 00:44:25;;;;;;;;;0.00;0.00;;;;;24.14;100.00;100563.44;2114278;27;46377;-61
2023/09/20 00:45:25;;;;;;;;;0.00;0.00;;;;;24.15;100.00;100557.06;2105675;27;46387;-61
2023/09/20 00:46:26;;;;;;;;;0.00;0.00;;;;;24.14;100.00;100558.03;2104554;27;46511;-60
2023/09/20 00:47:27;;;;;;;;;0.00;0.00;;;;;24.13;100.00;100559.88;2105057;28;46421;-60
2023/09/20 00:48:30;;;;;;;;;0.00;0.00;;;;;24.13;100.00;100562.59;2114802;27;46857;-61
2023/09/20 00:49:34;;;;;;;;;1.50;0.00;;;;;24.13;100.00;100561.72;2114005;27;46350;-60
2023/09/20 00:50:41;;;;;;;;;0.75;0.75;;;;;24.14;100.00;100558.94;2104958;28;47117;-59
2023/09/20 00:51:47;;;;;;;;;0.00;0.00;;;;;24.14;100.00;100558.94;2106336;27;45625;-61
2023/09/20 00:52:51;;;;;;;;;0.00;0.00;;;;;24.16;100.00;100562.38;2113851;27;46310;-60
2023/09/20 00:53:57;;;;;;;;;0.00;0.00;;;;;24.14;100.00;100558.94;2114663;27;46406;-62
2023/09/20 00:54:57;;;;;;;;;0.00;0.00;;;;;24.13;100.00;100554.47;2105000;28;46761;-61
2023/09/20 00:55:58;;;;;;;;;0.00;0.00;;;;;24.13;100.00;100565.31;2104907;27;46847;-61
2023/09/20 00:56:59;;;;;;;;;0.00;0.00;;;;;24.12;100.00;100560.88;2114457;27;46709;-61
2023/09/20 00:58:07;;;;;;;;;0.00;0.00;;;;;24.14;100.00;100560.75;2104889;28;46780;-61
2023/09/20 00:59:09;;;;;;;;;0.00;0.00;;;;;24.13;100.00;100561.72;2106091;27;46354;-61
2023/09/20 01:00:13;;;;;;;;;0.00;0.00;;;;;24.12;100.00;100555.44;2105346;28;45498;-61
2023/09/20 01:01:15;;;;;;;;;0.25;0.25;;;;;24.12;100.00;100558.16;2103911;28;45949;-61
2023/09/20 01:02:15;;;;;;;;;0.00;0.00;;;;;24.12;100.00;100555.44;2106040;27;45297;-61
2023/09/20 01:03:19;;;;;;;;;0.00;0.00;;;;;24.13;100.00;100561.72;2113724;27;46429;-61
2023/09/20 01:04:19;;;;;;;;;0.00;0.00;;;;;24.11;100.00;100559.16;2109721;27;46766;-61
2023/09/20 01:05:21;;;;;;;;;0.00;0.00;;;;;24.10;100.00;100553.84;2113667;27;46090;-60
2023/09/20 01:06:23;;;;;;;;;1.50;0.00;;;;;24.07;100.00;100555.84;2113239;27;46470;-61
2023/09/20 01:07:23;;;;;;;;;0.00;0.00;;;;;24.06;100.00;100545.97;2110608;27;46481;-60
2023/09/20 01:08:23;;;;;;;;;0.00;0.00;;;;;24.05;100.00;100554.22;2110305;27;46740;-61
2023/09/20 01:09:24;;;;;;;;;0.00;0.00;;;;;24.05;100.00;100548.81;2114165;27;46655;-61
2023/09/20 01:10:26;;;;;;;;;1.00;0.25;;;;;24.04;100.00;100556.09;2113722;27;46410;-61
2023/09/20 01:11:26;;;;;;;;;1.00;0.50;;;;;24.04;100.00;100547.94;2114017;27;46597;-61
2023/09/20 01:12:26;;;;;;;;;0.33;0.33;;;;;24.04;100.00;100549.81;2114132;27;46694;-61
2023/09/20 01:13:27;;;;;;;;;0.00;0.00;;;;;24.07;100.00;100549.53;2114125;27;47082;-61
2023/09/20 01:14:28;;;;;;;;;0.00;0.00;;;;;24.07;100.00;100549.53;2113533;27;46641;-61
2023/09/20 01:15:29;;;;;;;;;0.33;0.33;;;;;24.08;100.00;100557.56;2114306;27;46792;-61
2023/09/20 01:16:29;;;;;;;;;1.00;1.00;;;;;24.08;100.00;100553.97;2100430;27;46663;-61
2023/09/20 01:17:29;;;;;;;;;0.00;0.00;;;;;24.08;100.00;100549.41;2095848;28;46977;-61
2023/09/20 01:18:29;;;;;;;;;1.00;0.00;;;;;24.11;100.00;100550.16;2109198;27;46349;-61
2023/09/20 01:19:30;;;;;;;;;0.00;0.00;;;;;24.10;100.00;100548.44;2113860;27;46449;-61
2023/09/20 01:20:37;;;;;;;;;0.00;0.00;;;;;24.09;100.00;100542.16;2112003;27;46553;-61
2023/09/20 01:21:41;;;;;;;;;1.00;1.00;;;;;24.08;100.00;100548.56;2112823;27;46513;-61
2023/09/20 01:22:42;;;;;;;;;0.00;0.00;;;;;24.08;100.00;100553.97;2114387;27;46208;-61
2023/09/20 01:23:45;;;;;;;;;0.00;0.00;;;;;24.08;100.00;100554.84;2113987;27;46140;-61
2023/09/20 01:24:46;;;;;;;;;0.00;0.00;;;;;24.08;100.00;100549.41;2113507;27;46916;-61
2023/09/20 01:25:47;;;;;;;;;0.75;0.75;;;;;24.08;100.00;100552.13;2113944;27;46323;-60
2023/09/20 01:26:49;;;;;;;;;1.67;0.00;;;;;24.10;100.00;100548.44;2113624;27;46617;-60
2023/09/20 01:28:01;;;;;;;;;0.00;0.00;;;;;24.10;100.00;100552.00;2114016;27;46292;-61
2023/09/20 01:29:01;;;;;;;;;0.75;0.75;;;;;24.10;100.00;100549.28;2113965;27;46672;-60
2023/09/20 01:30:02;;;;;;;;;0.00;0.00;;;;;24.09;100.00;100553.00;2113324;27;46795;-61
2023/09/20 01:31:05;;;;;;;;;1.00;1.00;;;;;24.08;100.00;100554.84;2113143;27;46531;-60
2023/09/20 01:32:05;;;;;;;;;0.00;0.00;;;;;24.08;100.00;100556.69;2113829;27;46803;-61
2023/09/20 01:33:08;;;;;;;;;0.00;0.00;;;;;24.04;100.00;100547.94;2112751;27;46611;-61
2023/09/20 01:34:09;;;;;;;;;0.75;0.75;;;;;24.00;100.00;100557.28;2109287;27;46507;-60
2023/09/20 01:35:16;;;;;;;;;0.00;0.00;;;;;24.06;100.00;100551.41;2114217;27;46707;-60
2023/09/20 01:36:16;;;;;;;;;0.00;0.00;;;;;24.08;100.00;100545.84;2113416;27;46805;-61
2023/09/20 01:37:18;;;;;;;;;0.00;0.00;;;;;24.08;100.00;100551.28;2113616;27;46683;-61
2023/09/20 01:38:20;;;;;;;;;0.50;0.50;;;;;24.07;100.00;100549.53;2112745;27;46624;-60
2023/09/20 01:39:20;;;;;;;;;1.00;1.00;;;;;24.16;100.00;100546.09;2113525;27;46554;-60
2023/09/20 01:40:25;;;;;;;;;0.00;0.00;;;;;24.20;100.00;100549.41;2113506;27;46225;-60
2023/09/20 01:41:27;;;;;;;;;0.00;0.00;;;;;24.23;100.00;100549.16;2113729;27;46409;-60
2023/09/20 01:42:28;;;;;;;;;0.00;0.00;;;;;24.03;100.00;100548.94;2113557;27;46494;-61
2023/09/20 01:43:28;;;;;;;;;1.00;1.00;;;;;23.99;100.00;100541.16;2113910;27;45934;-61
2023/09/20 01:44:28;;;;;;;;;1.33;0.00;;;;;23.95;100.00;100532.41;2113659;27;46483;-61
2023/09/20 01:45:29;;;;;;;;;0.00;0.00;;;;;23.92;100.00;100538.09;2113803;27;46020;-60
2023/09/20 01:46:29;;;;;;;;;1.00;0.00;;;;;23.90;100.00;100539.22;2109769;27;45726;-61
2023/09/20 01:47:31;;;;;;;;;0.00;0.00;;;;;23.86;100.00;100538.56;2105333;28;46215;-61
2023/09/20 01:48:32;;;;;;;;;0.75;0.00;;;;;23.83;100.00;100538.81;2108548;27;46404;-60
2023/09/20 01:49:34;;;;;;;;;0.00;0.00;;;;;23.79;100.00;100545.47;2108565;27;46465;-61
2023/09/20 01:50:35;;;;;;;;;0.00;0.00;;;;;23.76;100.00;100537.59;2112300;27;46379;-61
2023/09/20 01:51:36;;;;;;;;;0.00;0.00;;;;;23.71;100.00;100537.94;2113663;27;46343;-61
2023/09/20 01:52:37;;;;;;;;;0.00;0.00;;;;;23.70;100.00;100540.78;2113401;27;46677;-60
2023/09/20 01:53:37;;;;;;;;;0.00;0.00;;;;;23.70;100.00;100533.50;2103981;28;47072;-61
2023/09/20 01:54:37;;;;;;;;;0.00;0.00;;;;;23.71;100.00;100537.09;2104349;28;45232;-61
2023/09/20 01:55:42;;;;;;;;;0.33;0.00;;;;;23.74;100.00;100539.53;2113632;27;46038;-61
2023/09/20 01:56:42;;;;;;;;;0.75;0.75;;;;;23.75;100.00;100541.25;2113719;27;46821;-61
2023/09/20 01:57:45;;;;;;;;;0.00;0.00;;;;;23.76;100.00;100527.63;2112772;27;46437;-61
2023/09/20 01:58:45;;;;;;;;;0.00;0.00;;;;;23.78;100.00;100536.50;2113521;27;46859;-61
2023/09/20 01:59:47;;;;;;;;;0.00;0.00;;;;;23.77;100.00;100534.78;2113042;27;46650;-60
2023/09/20 02:00:50;;;;;;;;;0.00;0.00;;;;;23.76;100.00;100530.34;2113407;27;45846;-62
2023/09/20 02:01:50;;;;;;;;;0.25;0.25;;;;;23.75;100.00;100539.41;2113315;27;46284;-61
2023/09/20 02:02:55;;;;;;;;;1.00;1.00;;;;;23.76;100.00;100530.34;2113868;27;46500;-61
2023/09/20 02:03:55;;;;;;;;;1.75;0.25;;;;;23.76;100.00;100519.50;2113457;27;46738;-61
2023/09/20 02:04:56;;;;;;;;;0.00;0.00;;;;;23.77;100.00;100523.94;2113196;27;46287;-61
2023/09/20 02:05:58;;;;;;;;;0.00;0.00;;;;;23.77;100.00;100523.94;2113949;27;46668;-61
2023/09/20 02:06:59;;;;;;;;;0.00;0.00;;;;;23.78;100.00;100524.78;2112124;27;47430;-63
2023/09/20 02:07:59;;;;;;;;;0.00;0.00;;;;;23.78;100.00;100522.09;2113376;27;46631;-62
2023/09/20 02:09:00;;;;;;;;;0.00;0.00;;;;;23.79;100.00;100521.09;2113746;27;46697;-62
2023/09/20 02:10:00;;;;;;;;;0.00;0.00;;;;;23.78;100.00;100519.38;2113626;27;45229;-61
2023/09/20 02:11:00;;;;;;;;;0.00;0.00;;;;;23.74;100.00;100521.44;2113091;27;46690;-60
2023/09/20 02:12:01;;;;;;;;;1.00;0.00;;;;;23.71;100.00;100516.28;2113160;27;46491;-62
2023/09/20 02:13:01;;;;;;;;;0.00;0.00;;;;;23.68;100.00;100526.50;2113628;27;45836;-62
2023/09/20 02:14:01;;;;;;;;;0.33;0.33;;;;;23.92;100.00;100526.38;2113154;27;46418;-62
2023/09/20 02:15:07;;;;;;;;;0.00;0.00;;;;;23.96;100.00;100526.00;2113403;27;46774;-62
2023/09/20 02:16:09;;;;;;;;;1.00;0.00;;;;;23.97;100.00;100516.03;2113315;27;46924;-61
2023/09/20 02:17:10;;;;;;;;;0.75;0.75;;;;;23.95;100.00;100512.59;2114000;27;46293;-61
2023/09/20 02:18:10;;;;;;;;;0.00;0.00;;;;;23.97;100.00;100507.91;2113520;27;46466;-61
2023/09/20 02:19:10;;;;;;;;;0.33;0.33;;;;;24.00;100.00;100513.94;2110738;27;45431;-61
2023/09/20 02:20:31;;;;;;;;;0.00;0.00;;;;;24.00;100.00;100516.63;2104156;27;46587;-61
2023/09/20 02:21:32;;;;;;;;;0.00;0.00;;;;;23.96;100.00;100507.03;2109833;27;46968;-62
2023/09/20 02:22:32;;;;;;;;;1.00;1.00;;;;;24.02;100.00;100503.84;2113884;27;46376;-62
2023/09/20 02:23:33;;;;;;;;;1.00;0.00;;;;;24.05;100.00;100511.72;2106617;27;46315;-61
2023/09/20 02:24:34;;;;;;;;;1.00;1.00;;;;;24.08;100.00;100500.63;2111870;27;46397;-61
2023/09/20 02:25:35;;;;;;;;;0.00;0.00;;;;;24.08;100.00;100507.91;2095071;28;46484;-61
2023/09/20 02:26:36;;;;;;;;;0.00;0.00;;;;;24.06;100.00;100499.88;2095265;28;46815;-62
2023/09/20 02:27:39;;;;;;;;;2.75;1.00;;;;;24.06;100.00;100499.88;2112577;27;46942;-62
2023/09/20 02:28:40;;;;;;;;;1.00;1.00;;;;;24.03;100.00;100500.16;2113220;27;46509;-62
2023/09/20 02:29:41;;;;;;;;;0.00;0.00;;;;;24.03;100.00;100505.56;2113152;27;46453;-62
2023/09/20 02:30:41;;;;;;;;;0.00;0.00;;;;;24.00;100.00;100497.66;2095171;28;46971;-62
2023/09/20 02:31:41;;;;;;;;;0.00;0.00;;;;;23.98;100.00;100493.34;2095379;28;46368;-61
2023/09/20 02:32:43;;;;;;;;;0.67;0.00;;;;;24.02;100.00;100494.84;2095565;28;46263;-62
2023/09/20 02:33:43;;;;;;;;;0.00;0.00;;;;;23.99;100.00;100492.38;2095705;28;46970;-62
2023/09/20 02:34:44;;;;;;;;;0.00;0.00;;;;;24.03;100.00;100493.88;2095529;28;46951;-61
2023/09/20 02:35:45;;;;;;;;;0.00;0.00;;;;;24.02;100.00;100497.56;2094948;28;46632;-61
2023/09/20 02:36:45;;;;;;;;;1.00;0.00;;;;;23.98;100.00;100501.50;2095625;28;46095;-61
2023/09/20 02:37:46;;;;;;;;;0.00;0.00;;;;;23.97;100.00;100495.22;2095737;28;46623;-61
2023/09/20 02:38:47;;;;;;;;;0.00;0.00;;;;;23.96;100.00;100495.34;2095587;28;46244;-62
2023/09/20 02:39:47;;;;;;;;;0.00;0.00;;;;;23.94;100.00;100495.47;2095517;28;46699;-62
2023/09/20 02:40:50;;;;;;;;;0.00;0.00;;;;;23.96;100.00;100493.47;2092564;28;46664;-61
2023/09/20 02:41:50;;;;;;;;;0.00;0.00;;;;;23.98;100.00;100493.34;2087052;28;46679;-62
2023/09/20 02:42:52;;;;;;;;;1.33;1.33;;;;;23.98;100.00;100486.09;2093119;28;46469;-62
2023/09/20 02:43:53;;;;;;;;;0.00;0.00;;;;;24.01;100.00;100495.81;2095553;28;46665;-61
2023/09/20 02:44:53;;;;;;;;;1.33;0.33;;;;;23.98;100.00;100496.06;2095755;28;46473;-61
2023/09/20 02:45:59;;;;;;;;;0.00;0.00;;;;;23.74;100.00;100491.63;2095388;28;46593;-63
2023/09/20 02:46:59;;;;;;;;;0.25;0.25;;;;;23.73;100.00;100491.75;2095144;28;46300;-60
2023/09/20 02:48:04;;;;;;;;;0.33;0.00;;;;;23.72;100.00;100488.19;2094172;28;46689;-61
2023/09/20 02:49:04;;;;;;;;;0.00;0.00;;;;;23.71;100.00;100489.19;2093392;28;46743;-61
2023/09/20 02:50:05;;;;;;;;;0.00;0.00;;;;;23.76;100.00;100494.25;2095144;28;46251;-61
2023/09/20 02:51:05;;;;;;;;;0.00;0.00;;;;;23.77;100.00;100493.25;2095223;28;46185;-62
2023/09/20 02:52:06;;;;;;;;;0.33;0.00;;;;;23.78;100.00;100492.28;2086800;28;46483;-62
2023/09/20 02:53:07;;;;;;;;;0.00;0.00;;;;;23.77;100.00;100494.13;2078665;28;46777;-62
2023/09/20 02:54:08;;;;;;;;;0.00;0.00;;;;;23.76;100.00;100497.81;2087141;28;46621;-62
2023/09/20 02:55:17;;;;;;;;;0.00;0.00;;;;;23.74;100.00;100494.34;2095636;28;46906;-62
2023/09/20 02:56:18;;;;;;;;;0.00;0.00;;;;;23.75;100.00;100489.78;2095538;28;46671;-62
2023/09/20 02:57:18;;;;;;;;;0.50;0.00;;;;;23.73;100.00;100497.19;2081986;28;46514;-62
2023/09/20 02:58:18;;;;;;;;;0.00;0.00;;;;;23.74;100.00;100497.06;2087314;28;47167;-61
2023/09/20 02:59:20;;;;;;;;;0.33;0.33;;;;;23.71;100.00;100494.59;2096238;28;46768;-61
2023/09/20 03:00:21;;;;;;;;;0.00;0.00;;;;;23.74;100.00;100496.19;2095320;28;46599;-62
2023/09/20 03:01:22;;;;;;;;;1.00;1.00;;;;;23.73;100.00;100494.47;2095183;28;46179;-62
2023/09/20 03:02:24;;;;;;;;;0.00;0.00;;;;;23.75;100.00;100481.66;2103706;27;46953;-62
2023/09/20 03:03:25;;;;;;;;;0.00;0.00;;;;;23.75;100.00;100492.50;2113172;27;46864;-62
2023/09/20 03:04:25;;;;;;;;;0.25;0.25;;;;;23.74;100.00;100491.63;2113300;27;46505;-60
2023/09/20 03:05:29;;;;;;;;;0.00;0.00;;;;;23.71;100.00;100488.31;2113181;27;46134;-60
2023/09/20 03:06:30;;;;;;;;;0.75;0.00;;;;;23.55;100.00;100494.06;2113297;27;46981;-61
2023/09/20 03:07:31;;;;;;;;;4.67;4.00;;;;;23.62;100.00;100484.47;2113168;27;46487;-61
2023/09/20 03:08:33;;;;;;;;;1.00;1.00;;;;;23.65;100.00;100491.53;2113279;27;46187;-61
2023/09/20 03:09:36;;;;;;;;;1.00;1.00;;;;;23.68;100.00;100480.44;2114266;27;46638;-61
2023/09/20 03:10:43;;;;;;;;;0.25;0.00;;;;;23.68;100.00;100486.72;2114527;27;46664;-61
2023/09/20 03:11:44;;;;;;;;;0.25;0.00;;;;;23.89;100.00;100478.72;2114781;27;46563;-61
2023/09/20 03:12:46;;;;;;;;;0.33;0.33;;;;;23.89;100.00;100483.28;2112828;27;46878;-61
2023/09/20 03:13:46;;;;;;;;;0.00;0.00;;;;;23.87;100.00;100486.09;2106571;27;46499;-61
2023/09/20 03:14:47;;;;;;;;;1.00;0.33;;;;;23.86;100.00;100480.78;2114326;27;46449;-60
2023/09/20 03:15:54;;;;;;;;;0.00;0.00;;;;;23.89;100.00;100477.88;2114918;27;46469;-62
2023/09/20 03:16:54;;;;;;;;;0.00;0.00;;;;;23.89;100.00;100470.59;2114618;27;46802;-62
2023/09/20 03:18:02;;;;;;;;;0.00;0.00;;;;;23.91;100.00;100471.31;2114348;27;46250;-62
2023/09/20 03:19:04;;;;;;;;;0.00;0.00;;;;;23.90;100.00;100464.19;2115363;27;46714;-61
2023/09/20 03:20:11;;;;;;;;;0.25;0.25;;;;;23.90;100.00;100464.19;2114804;27;46521;-60
2023/09/20 03:21:11;;;;;;;;;0.00;0.00;;;;;23.89;100.00;100464.31;2114233;27;46705;-61
2023/09/20 03:22:13;;;;;;;;;0.00;0.00;;;;;23.89;100.00;100467.03;2114835;27;46557;-61
2023/09/20 03:23:13;;;;;;;;;1.50;0.75;;;;;23.89;100.00;100458.88;2114842;27;46336;-61
2023/09/20 03:24:13;;;;;;;;;0.00;0.00;;;;;23.91;100.00;100465.03;2114464;27;46353;-61
2023/09/20 03:25:14;;;;;;;;;1.00;0.00;;;;;23.90;100.00;100466.03;2114524;27;46511;-61
2023/09/20 03:26:15;;;;;;;;;0.00;0.00;;;;;23.89;100.00;100465.16;2105477;28;46171;-61
2023/09/20 03:27:16;;;;;;;;;0.00;0.00;;;;;23.91;100.00;100465.03;2105791;27;46808;-61
2023/09/20 03:28:19;;;;;;;;;0.00;0.00;;;;;23.91;100.00;100460.47;2114958;27;46639;-61
2023/09/20 03:29:20;;;;;;;;;1.00;1.00;;;;;23.94;100.00;100451.22;2114505;27;46827;-61
2023/09/20 03:30:20;;;;;;;;;0.00;0.00;;;;;23.93;100.00;100463.06;2114020;27;46538;-61
2023/09/20 03:31:22;;;;;;;;;0.00;0.00;;;;;23.95;100.00;100455.66;2114100;27;46563;-61
2023/09/20 03:32:22;;;;;;;;;0.25;0.25;;;;;23.92;100.00;100448.66;2114376;27;46967;-61
2023/09/20 03:33:23;;;;;;;;;0.00;0.00;;;;;23.77;100.00;100458.91;2114689;27;46832;-61
2023/09/20 03:34:23;;;;;;;;;2.00;0.33;;;;;23.72;100.00;100446.69;2113990;27;46249;-60
2023/09/20 03:35:24;;;;;;;;;2.00;0.67;;;;;23.69;100.00;100444.22;2114692;27;46951;-61
2023/09/20 03:36:25;;;;;;;;;0.00;0.00;;;;;23.68;100.00;100443.38;2114125;27;46263;-63
2023/09/20 03:37:27;;;;;;;;;2.00;2.00;;;;;23.69;100.00;100449.66;2113439;27;46785;-61
2023/09/20 03:38:27;;;;;;;;;14.20;14.20;;;;;23.66;100.00;100437.22;2115028;27;46626;-61
2023/09/20 03:39:28;;;;;;;;;6.50;6.50;;;;;23.65;100.00;100443.63;2114455;27;46106;-62
2023/09/20 03:40:28;;;;;;;;;2.00;2.00;;;;;23.62;100.00;100438.44;2113970;27;46303;-61
2023/09/20 03:41:29;;;;;;;;;5.67;3.00;;;;;23.61;100.00;100441.28;2113731;27;46756;-61
2023/09/20 03:42:29;;;;;;;;;1.00;1.00;;;;;23.60;100.00;100440.41;2113857;27;46650;-61
2023/09/20 03:43:29;;;;;;;;;0.00;0.00;;;;;23.61;100.00;100447.53;2114269;27;46291;-61
2023/09/20 03:44:32;;;;;;;;;1.00;1.00;;;;;23.62;100.00;100443.00;2114547;27;46316;-61
2023/09/20 03:45:32;;;;;;;;;0.00;0.00;;;;;23.62;100.00;100434.88;2114264;27;46963;-61
2023/09/20 03:46:33;;;;;;;;;1.00;1.00;;;;;23.61;100.00;100431.28;2108462;27;46464;-60
2023/09/20 03:47:33;;;;;;;;;0.00;0.00;;;;;23.59;100.00;100430.56;2112316;27;46794;-61
2023/09/20 03:48:33;;;;;;;;;1.00;0.00;;;;;23.56;100.00;100433.50;2112322;27;46429;-61
2023/09/20 03:49:34;;;;;;;;;0.00;0.00;;;;;23.56;100.00;100429.91;2111365;27;46828;-61
2023/09/20 03:50:34;;;;;;;;;0.00;0.00;;;;;23.56;100.00;100425.38;2114343;27;46657;-61
2023/09/20 03:51:35;;;;;;;;;0.00;0.00;;;;;23.54;100.00;100430.03;2114457;27;46812;-61
2023/09/20 03:52:42;;;;;;;;;0.00;0.00;;;;;23.54;100.00;100429.19;2114285;27;46456;-61
2023/09/20 03:53:43;;;;;;;;;0.00;0.00;;;;;23.50;100.00;100428.53;2114513;27;46605;-61
2023/09/20 03:54:48;;;;;;;;;0.00;0.00;;;;;23.47;100.00;100421.53;2114405;27;46510;-61
2023/09/20 03:55:49;;;;;;;;;0.00;0.00;;;;;23.46;100.00;100422.53;2114793;27;47118;-61
2023/09/20 03:56:49;;;;;;;;;0.00;0.00;;;;;23.46;100.00;100421.66;2114500;27;47007;-62
2023/09/20 03:57:49;;;;;;;;;0.00;0.00;;;;;23.44;100.00;100424.50;2114072;27;46182;-61
2023/09/20 03:58:50;;;;;;;;;0.00;0.00;;;;;23.44;100.00;100416.38;2114466;27;46608;-61
2023/09/20 03:59:52;;;;;;;;;0.00;0.00;;;;;23.45;100.00;100422.66;2114506;27;46838;-62
2023/09/20 04:00:52;;;;;;;;;0.00;0.00;;;;;23.44;100.00;100415.50;2114058;27;46396;-62
2023/09/20 04:01:53;;;;;;;;;0.00;0.00;;;;;23.46;100.00;100416.25;2114355;27;45841;-61
2023/09/20 04:02:54;;;;;;;;;0.00;0.00;;;;;23.46;100.00;100411.69;2114533;27;46741;-61
2023/09/20 04:03:54;;;;;;;;;2.00;1.00;;;;;23.48;100.00;100419.69;2112940;27;46362;-62
2023/09/20 04:05:00;;;;;;;;;0.00;0.00;;;;;23.49;100.00;100418.69;2114598;27;46191;-61
2023/09/20 04:06:01;;;;;;;;;1.00;1.00;;;;;23.49;100.00;100418.69;2114203;27;47030;-61
2023/09/20 04:07:01;;;;;;;;;0.00;0.00;;;;;23.51;100.00;100418.59;2114192;27;46599;-61
2023/09/20 04:08:02;;;;;;;;;0.00;0.00;;;;;23.53;100.00;100420.19;2114306;27;46656;-61
2023/09/20 04:09:11;;;;;;;;;1.00;1.00;;;;;23.53;100.00;100422.91;2114395;27;46466;-62
2023/09/20 04:10:12;;;;;;;;;1.00;1.00;;;;;23.52;100.00;100421.19;2114753;27;46849;-62
2023/09/20 04:11:12;;;;;;;;;0.00;0.00;;;;;23.51;100.00;100415.91;2114396;27;46478;-62
2023/09/20 04:12:12;;;;;;;;;0.67;0.67;;;;;23.48;100.00;100417.84;2110040;27;46530;-61
2023/09/20 04:13:14;;;;;;;;;0.67;0.67;;;;;23.45;100.00;100414.53;2105259;28;46919;-62
2023/09/20 04:14:14;;;;;;;;;1.25;1.25;;;;;23.44;100.00;100410.97;2112754;27;47434;-62
2023/09/20 04:15:16;;;;;;;;;0.00;0.00;;;;;23.44;100.00;100413.66;2114296;27;47108;-62
2023/09/20 04:16:17;;;;;;;;;0.00;0.00;;;;;23.48;100.00;100408.84;2114980;27;46711;-61
2023/09/20 04:17:17;;;;;;;;;0.00;0.00;;;;;23.47;100.00;100405.28;2112850;27;46380;-61
2023/09/20 04:18:17;;;;;;;;;0.00;0.00;;;;;23.53;100.00;100401.25;2112958;27;47502;-62
2023/09/20 04:19:19;;;;;;;;;1.00;0.67;;;;;23.49;100.00;100407.88;2108622;27;45786;-59
2023/09/20 04:20:20;;;;;;;;;1.00;1.00;;;;;23.46;100.00;100408.97;2104699;27;46759;-62
2023/09/20 04:21:23;;;;;;;;;0.00;0.00;;;;;23.43;100.00;100411.94;2104009;28;46882;-61
2023/09/20 04:22:24;;;;;;;;;1.00;0.00;;;;;23.44;100.00;100410.09;2104470;28;46383;-60
2023/09/20 04:23:24;;;;;;;;;1.00;1.00;;;;;23.43;100.00;100409.22;2104529;28;46293;-60
2023/09/20 04:24:26;;;;;;;;;0.00;0.00;;;;;23.44;100.00;100410.09;2108448;27;46457;-61
2023/09/20 04:25:26;;;;;;;;;0.00;0.00;;;;;23.42;100.00;100409.38;2106838;27;46844;-61
2023/09/20 04:26:26;;;;;;;;;0.33;0.00;;;;;23.43;100.00;100405.66;2104481;27;46064;-61
2023/09/20 04:27:29;;;;;;;;;0.00;0.00;;;;;23.45;100.00;100411.81;2104485;28;46728;-61
2023/09/20 04:28:30;;;;;;;;;1.00;1.00;;;;;23.44;100.00;100410.97;2087796;28;45628;-60
2023/09/20 04:29:31;;;;;;;;;0.67;0.67;;;;;23.45;100.00;100407.25;2082734;28;46751;-61
2023/09/20 04:30:33;;;;;;;;;0.00;0.00;;;;;23.46;100.00;100406.28;2097079;28;46126;-61
2023/09/20 04:31:33;;;;;;;;;0.75;0.00;;;;;23.45;100.00;100400.97;2104658;28;46502;-61
2023/09/20 04:32:35;;;;;;;;;1.00;0.00;;;;;23.43;100.00;100395.69;2095543;28;46815;-61
2023/09/20 04:33:36;;;;;;;;;0.00;0.00;;;;;23.41;100.00;100394.97;2096309;28;46390;-61
2023/09/20 04:34:37;;;;;;;;;0.75;0.75;;;;;23.40;100.00;100392.38;2104232;28;46328;-61
2023/09/20 04:35:37;;;;;;;;;0.00;0.00;;;;;23.40;100.00;100395.94;2104291;28;46544;-61
2023/09/20 04:36:38;;;;;;;;;0.00;0.00;;;;;23.39;100.00;100391.53;2103024;28;46195;-61
2023/09/20 04:37:38;;;;;;;;;1.00;0.00;;;;;23.37;100.00;100388.03;2096269;28;46659;-61
2023/09/20 04:38:38;;;;;;;;;0.67;0.67;;;;;23.33;100.00;100383.00;2096245;28;46681;-60
2023/09/20 04:39:39;;;;;;;;;0.00;0.00;;;;;23.24;100.00;100383.72;2096134;28;46872;-60
2023/09/20 04:40:40;;;;;;;;;0.00;0.00;;;;;23.16;100.00;100387.94;2096656;28;46713;-61
2023/09/20 04:41:40;;;;;;;;;0.00;0.00;;;;;23.24;100.00;100383.72;2104724;28;46475;-61
2023/09/20 04:42:41;;;;;;;;;0.00;0.00;;;;;23.30;100.00;100381.41;2104913;28;46224;-60